Time;durP1;ratioP1;P1;durP2;ratioP2;P2;SDS_P1;SDS_P2;PMS_P1;PMS_P2;Temp;Humidity;BMP_temperature;BMP_pressure;BME280_temperature;BME280_humidity;BME280_pressure;Samples;Min_cycle;Max_cycle;Signal;HPM_P1;HPM_P2
2022/08/02 00:01:53;;;;;;;2.30;1.35;;;;;;;22.38;60.40;99228.88;5101235;29;20596;-71
2022/08/02 00:04:44;;;;;;;3.83;1.38;;;;;;;22.37;60.12;99219.13;5103481;29;20502;-71
2022/08/02 00:07:35;;;;;;;1.85;1.30;;;;;;;22.37;60.47;99237.22;5114535;28;20092;-70
2022/08/02 00:10:30;;;;;;;2.70;1.38;;;;;;;22.03;61.27;99237.31;5088888;29;20067;-69
2022/08/02 00:13:20;;;;;;;2.67;1.50;;;;;;;22.23;60.86;99239.13;5102835;29;20055;-69
2022/08/02 00:16:12;;;;;;;2.83;1.45;;;;;;;22.00;61.08;99232.31;5103887;29;20051;-70
2022/08/02 00:19:06;;;;;;;2.95;1.17;;;;;;;21.71;62.39;99255.22;5104513;29;20470;-69
2022/08/02 00:21:56;;;;;;;2.60;1.40;;;;;;;21.64;62.67;99250.88;5102931;29;20059;-71
2022/08/02 00:24:46;;;;;;;3.03;1.55;;;;;;;21.67;62.11;99258.56;5103921;29;20079;-70
2022/08/02 00:27:36;;;;;;;3.20;1.40;;;;;;;21.74;62.26;99259.38;5097986;29;20102;-70
2022/08/02 00:30:27;;;;;;;2.90;1.80;;;;;;;21.77;61.50;99256.25;5088215;29;20082;-70
2022/08/02 00:33:18;;;;;;;3.70;1.55;;;;;;;21.68;62.19;99249.41;5103808;29;20667;-69
2022/08/02 00:36:28;;;;;;;4.43;1.85;;;;;;;21.73;61.72;99252.31;5100953;29;20062;-69
2022/08/02 00:39:18;;;;;;;5.45;2.00;;;;;;;21.68;61.09;99238.63;5103853;29;20066;-70
2022/08/02 00:42:25;;;;;;;2.35;1.52;;;;;;;21.57;61.54;99253.56;5099075;29;20548;-71
2022/08/02 00:45:15;;;;;;;3.15;1.42;;;;;;;21.46;61.65;99236.16;5116115;29;20195;-71
2022/08/02 00:48:08;;;;;;;3.78;1.70;;;;;;;21.44;61.50;99251.72;5103554;29;20168;-69
2022/08/02 00:50:58;;;;;;;2.85;1.60;;;;;;;21.38;61.92;99254.41;5102758;29;20082;-70
2022/08/02 00:53:48;;;;;;;2.92;1.63;;;;;;;21.43;62.06;99260.03;5088873;29;20102;-71
2022/08/02 00:56:39;;;;;;;2.72;1.95;;;;;;;21.34;62.20;99253.97;5102400;29;20498;-70
2022/08/02 00:59:40;;;;;;;6.55;3.38;;;;;;;21.52;62.22;99256.91;5103085;29;20134;-71
2022/08/02 01:02:31;;;;;;;4.60;3.10;;;;;;;21.25;62.28;99252.50;5101594;29;20055;-71
2022/08/02 01:05:21;;;;;;;4.03;3.15;;;;;;;21.03;62.64;99249.19;5103603;29;20175;-69
2022/08/02 01:08:11;;;;;;;4.45;3.15;;;;;;;21.16;61.99;99251.88;5101712;29;20107;-70
2022/08/02 01:11:01;;;;;;;4.82;3.47;;;;;;;21.14;62.09;99253.94;5115233;29;20082;-71
2022/08/02 01:13:53;;;;;;;3.65;3.25;;;;;;;20.91;62.26;99261.59;5102717;29;20107;-70
2022/08/02 01:17:04;;;;;;;3.47;3.13;;;;;;;20.80;62.42;99257.63;5102778;29;20150;-71
2022/08/02 01:20:32;;;;;;;3.83;2.95;;;;;;;21.06;63.28;99254.16;5088508;29;20103;-71
2022/08/02 01:23:34;;;;;;;4.32;2.60;;;;;;;21.15;63.12;99265.56;5102271;29;20052;-71
2022/08/02 01:26:36;;;;;;;3.75;2.53;;;;;;;21.10;62.91;99255.41;5095151;29;20523;-71
2022/08/02 01:29:33;;;;;;;5.53;2.65;;;;;;;21.04;63.25;99275.09;5111778;29;20058;-70
2022/08/02 01:32:30;;;;;;;3.28;2.20;;;;;;;20.97;64.16;99266.16;5101667;29;20062;-69
2022/08/02 01:35:26;;;;;;;5.63;2.33;;;;;;;20.93;64.21;99279.22;5102778;29;20327;-69
2022/08/02 01:38:22;;;;;;;5.75;2.13;;;;;;;20.81;64.43;99278.16;5102663;29;20418;-69
2022/08/02 01:41:17;;;;;;;2.95;2.00;;;;;;;20.69;63.75;99283.28;5102192;29;20062;-71
2022/08/02 01:44:09;;;;;;;3.65;2.10;;;;;;;20.65;65.06;99282.84;5102441;29;20566;-69
2022/08/02 01:47:03;;;;;;;2.55;2.20;;;;;;;20.73;65.08;99292.63;5101804;29;20130;-70
2022/08/02 01:49:57;;;;;;;5.45;2.45;;;;;;;20.81;64.98;99280.84;5092199;29;20067;-69
2022/08/02 01:52:51;;;;;;;2.65;2.00;;;;;;;20.91;65.33;99281.28;5100767;29;20098;-69
2022/08/02 01:55:45;;;;;;;2.80;2.10;;;;;;;20.75;64.73;99279.78;5100979;29;20079;-69
2022/08/02 01:58:47;;;;;;;;;;;;;;;20.87;64.80;99293.50;5100967;29;20055;-70
2022/08/02 02:01:39;;;;;;;4.40;2.20;;;;;;;20.98;64.61;99294.78;5100813;29;19930;-70
2022/08/02 02:04:31;;;;;;;3.30;2.00;;;;;;;21.03;64.31;99295.00;5102108;29;20092;-70
2022/08/02 02:07:21;;;;;;;6.40;2.35;;;;;;;20.89;64.34;99288.72;5101310;29;20055;-69
2022/08/02 02:10:15;;;;;;;10.50;3.47;;;;;;;20.76;64.09;99297.63;5100737;29;20067;-69
2022/08/02 02:13:11;;;;;;;4.28;2.10;;;;;;;20.57;64.80;99301.91;5101524;29;20048;-69
2022/08/02 02:16:03;;;;;;;3.58;1.80;;;;;;;20.70;64.69;99298.44;5101580;29;20052;-69
2022/08/02 02:18:54;;;;;;;4.70;2.20;;;;;;;20.69;64.72;99302.13;5101790;29;20044;-70
2022/08/02 02:21:44;;;;;;;2.63;1.60;;;;;;;20.69;64.36;99291.34;5099809;29;20063;-69
2022/08/02 02:24:35;;;;;;;4.88;2.17;;;;;;;20.54;64.47;99288.84;5101300;29;20055;-69
2022/08/02 02:27:26;;;;;;;3.80;2.28;;;;;;;20.50;64.32;99290.25;5101974;29;20052;-69
2022/08/02 02:30:17;;;;;;;3.80;2.22;;;;;;;20.22;64.96;99276.84;5101190;29;20068;-70
2022/08/02 02:33:10;;;;;;;4.28;2.08;;;;;;;20.30;64.21;99284.75;5100913;29;20294;-69
2022/08/02 02:36:02;;;;;;;2.95;2.10;;;;;;;20.22;64.44;99282.22;5101441;29;20056;-69
2022/08/02 02:38:55;;;;;;;2.72;1.85;;;;;;;20.16;64.97;99272.25;5103128;29;20056;-69
2022/08/02 02:41:47;;;;;;;3.88;2.20;;;;;;;20.03;64.99;99270.28;5102539;29;20059;-69
2022/08/02 02:44:39;;;;;;;5.72;1.90;;;;;;;20.23;64.05;99273.13;5102501;29;20062;-69
2022/08/02 02:47:31;;;;;;;4.07;2.20;;;;;;;20.13;64.53;99268.09;5102196;29;20138;-70
2022/08/02 02:50:31;;;;;;;2.42;1.75;;;;;;;20.20;64.29;99265.44;5101239;29;20074;-70
2022/08/02 02:53:22;;;;;;;4.40;2.15;;;;;;;20.33;63.49;99261.97;5097168;29;20059;-69
2022/08/02 02:56:15;;;;;;;2.72;2.03;;;;;;;20.25;63.86;99264.84;5101330;29;20182;-69
2022/08/02 02:59:07;;;;;;;4.60;2.28;;;;;;;20.21;64.55;99263.59;5101371;29;20118;-69
2022/08/02 03:01:58;;;;;;;4.50;2.47;;;;;;;20.13;65.24;99254.66;5099669;29;20075;-69
2022/08/02 03:04:49;;;;;;;3.15;2.35;;;;;;;20.00;65.22;99256.41;5101709;29;20130;-70
2022/08/02 03:07:47;;;;;;;7.75;2.90;;;;;;;19.92;65.11;99255.53;5099725;29;20142;-69
2022/08/02 03:10:38;;;;;;;5.00;2.47;;;;;;;19.65;65.52;99259.91;5088304;29;20135;-69
2022/08/02 03:13:30;;;;;;;5.88;2.55;;;;;;;19.53;65.97;99256.06;5101009;29;20126;-69
2022/08/02 03:16:30;;;;;;;11.00;2.50;;;;;;;19.52;65.71;99258.97;5101150;29;20114;-70
2022/08/02 03:19:22;;;;;;;4.25;2.40;;;;;;;19.49;65.48;99258.31;5101541;29;20454;-69
2022/08/02 03:22:12;;;;;;;3.83;2.60;;;;;;;19.55;65.24;99263.97;5101918;29;20115;-68
2022/08/02 03:25:02;;;;;;;3.17;2.40;;;;;;;19.53;64.90;99266.00;5104823;29;20438;-70
2022/08/02 03:27:53;;;;;;;3.00;2.47;;;;;;;19.48;65.81;99263.91;5104873;29;20109;-69
2022/08/02 03:30:43;;;;;;;3.90;2.55;;;;;;;19.56;66.43;99269.13;5091367;29;20060;-70
2022/08/02 03:33:34;;;;;;;4.20;2.40;;;;;;;19.61;66.23;99265.88;5104270;29;20534;-69
2022/08/02 03:36:29;;;;;;;6.05;3.03;;;;;;;19.61;66.19;99280.16;5104355;29;20052;-69
2022/08/02 03:39:21;;;;;;;7.07;2.60;;;;;;;19.65;65.98;99276.06;5104841;29;20410;-70
2022/08/02 03:42:12;;;;;;;3.00;2.60;;;;;;;19.80;66.27;99278.66;5103292;29;20059;-70
2022/08/02 03:45:08;;;;;;;4.13;2.63;;;;;;;19.79;66.46;99278.84;5104745;29;20058;-69
2022/08/02 03:47:59;;;;;;;3.53;2.35;;;;;;;19.60;66.00;99283.88;5099929;29;20498;-69
2022/08/02 03:50:50;;;;;;;6.05;2.58;;;;;;;19.38;66.75;99284.91;5091791;29;20107;-69
2022/08/02 03:53:43;;;;;;;4.78;2.17;;;;;;;19.52;66.51;99291.25;5103125;29;20517;-70
2022/08/02 03:56:33;;;;;;;4.20;2.40;;;;;;;19.58;66.05;99285.09;5116485;29;20077;-69
2022/08/02 03:59:23;;;;;;;5.70;2.65;;;;;;;19.55;65.60;99288.16;5124295;23;20486;-71
2022/08/02 04:02:14;;;;;;;3.85;2.65;;;;;;;19.41;65.75;99311.44;5177275;28;20049;-69
2022/08/02 04:05:04;;;;;;;2.60;2.00;;;;;;;19.11;66.64;99284.66;5179894;28;20049;-69
2022/08/02 04:07:56;;;;;;;3.90;2.63;;;;;;;19.28;66.95;99306.75;5169749;28;20046;-69
2022/08/02 04:14:26;;;;;;;4.07;2.25;;;;;;;19.43;66.73;99320.13;5196035;28;20133;-70
2022/08/02 04:17:18;;;;;;;4.05;2.47;;;;;;;19.46;66.17;99315.19;5191439;28;20060;-69
2022/08/02 04:20:18;;;;;;;4.22;2.90;;;;;;;19.66;66.00;99317.25;5184196;28;20340;-69
2022/08/02 04:23:13;;;;;;;7.00;2.80;;;;;;;19.52;66.04;99329.72;5197557;28;20049;-69
2022/08/02 04:26:04;;;;;;;8.05;3.20;;;;;;;19.22;67.11;99324.47;5197660;28;20060;-69
2022/08/02 04:28:59;;;;;;;3.50;2.60;;;;;;;19.45;66.29;99324.28;5212505;28;20401;-69
2022/08/02 04:31:50;;;;;;;4.78;2.97;;;;;;;19.61;66.21;99320.50;5199597;28;20072;-69
2022/08/02 04:34:41;;;;;;;8.18;2.72;;;;;;;19.63;66.27;99313.06;5185698;28;20065;-70
2022/08/02 04:37:43;;;;;;;4.32;2.60;;;;;;;19.54;65.03;99335.75;5194072;28;20434;-69
2022/08/02 04:40:54;;;;;;;4.85;2.30;;;;;;;19.45;66.33;99328.81;5200581;28;20413;-69
2022/08/02 04:43:45;;;;;;;4.45;2.67;;;;;;;19.47;66.13;99321.41;5197547;28;20060;-70
2022/08/02 04:46:35;;;;;;;7.78;3.00;;;;;;;19.61;66.34;99333.13;5194811;28;20042;-69
2022/08/02 04:49:26;;;;;;;5.15;2.60;;;;;;;19.69;66.02;99331.13;5194904;28;20416;-69
2022/08/02 04:52:16;;;;;;;6.07;3.42;;;;;;;19.51;67.55;99325.38;5193875;28;20089;-69
2022/08/02 04:55:08;;;;;;;5.97;2.60;;;;;;;19.61;66.94;99315.13;5198935;28;20053;-69
2022/08/02 04:57:58;;;;;;;5.35;2.90;;;;;;;19.70;67.60;99313.97;5183272;28;20079;-69
2022/08/02 05:00:53;;;;;;;5.72;3.30;;;;;;;19.90;66.78;99324.03;5189195;28;20049;-70
2022/08/02 05:03:43;;;;;;;3.75;3.05;;;;;;;20.02;66.30;99327.84;5196332;28;20049;-67
2022/08/02 05:06:36;;;;;;;5.45;3.00;;;;;;;20.20;66.59;99330.06;5188409;28;20545;-69
2022/08/02 05:09:27;;;;;;;4.32;2.50;;;;;;;20.32;65.40;99341.09;5201673;28;20418;-68
2022/08/02 05:12:18;;;;;;;4.00;2.50;;;;;;;20.38;65.36;99326.84;5198754;28;20054;-68
2022/08/02 05:15:11;;;;;;;4.47;3.20;;;;;;;20.60;65.95;99333.84;5186168;28;20107;-68
2022/08/02 05:18:02;;;;;;;4.07;2.83;;;;;;;20.94;65.25;99328.56;5183566;28;20044;-67
2022/08/02 05:20:52;;;;;;;6.22;3.38;;;;;;;21.04;65.46;99334.41;5194374;28;20291;-67
2022/08/02 05:23:47;;;;;;;5.13;3.10;;;;;;;21.09;65.09;99338.16;5185872;28;20424;-69
2022/08/02 05:26:37;;;;;;;7.35;3.28;;;;;;;21.10;65.27;99336.28;5203278;28;20530;-68
2022/08/02 05:29:27;;;;;;;5.03;2.90;;;;;;;21.11;65.21;99327.97;5202547;28;20045;-69
2022/08/02 05:32:18;;;;;;;4.60;2.65;;;;;;;21.19;64.17;99334.22;5183372;28;20431;-73
2022/08/02 05:35:08;;;;;;;4.03;2.90;;;;;;;21.06;65.57;99335.88;5190268;28;20081;-69
2022/08/02 05:37:59;;;;;;;5.30;3.13;;;;;;;21.24;64.88;99334.44;5192431;28;20049;-69
2022/08/02 05:40:49;;;;;;;10.90;3.28;;;;;;;21.17;65.15;99323.66;5192629;28;20064;-69
2022/08/02 05:43:44;;;;;;;14.23;3.97;;;;;;;20.57;66.74;99326.16;5205899;28;20060;-69
2022/08/02 05:46:35;;;;;;;7.30;3.60;;;;;;;21.21;64.94;99334.84;5188374;28;20048;-69
2022/08/02 05:49:25;;;;;;;11.63;3.65;;;;;;;21.25;64.95;99333.41;5191024;28;20549;-69
2022/08/02 05:52:18;;;;;;;9.75;3.55;;;;;;;21.37;64.25;99337.19;5191355;28;20052;-70
2022/08/02 05:55:16;;;;;;;9.82;3.15;;;;;;;21.23;64.09;99343.59;5196808;28;20052;-71
2022/08/02 05:58:20;;;;;;;10.95;4.22;;;;;;;21.48;62.66;99338.44;5189446;28;20049;-68
2022/08/02 06:01:16;;;;;;;8.93;3.33;;;;;;;21.51;61.95;99335.34;5176683;28;20558;-68
2022/08/02 06:04:10;;;;;;;5.90;3.22;;;;;;;21.82;60.64;99345.53;5184498;28;20061;-69
2022/08/02 06:07:05;;;;;;;5.25;3.58;;;;;;;21.63;61.39;99340.97;5200077;28;20077;-70
2022/08/02 06:09:58;;;;;;;5.68;3.45;;;;;;;21.54;61.71;99337.63;5204825;28;20061;-69
2022/08/02 06:13:00;;;;;;;5.70;3.70;;;;;;;21.92;60.25;99340.56;5182722;28;20055;-69
2022/08/02 06:15:51;;;;;;;6.95;3.47;;;;;;;22.24;59.29;99346.13;5193272;28;20056;-69
2022/08/02 06:18:44;;;;;;;6.47;4.03;;;;;;;21.95;58.91;99336.59;5182548;28;20046;-70
2022/08/02 06:21:35;;;;;;;6.47;3.22;;;;;;;22.11;59.67;99343.41;5188198;28;20064;-71
2022/08/02 06:24:48;;;;;;;9.43;3.78;;;;;;;22.19;59.01;99343.25;5190189;28;20068;-71
2022/08/02 06:27:40;;;;;;;5.23;3.97;;;;;;;22.24;58.70;99340.72;5185363;28;20490;-70
2022/08/02 06:30:31;;;;;;;6.32;4.20;;;;;;;22.22;59.13;99337.44;5190731;28;20050;-69
2022/08/02 06:33:22;;;;;;;7.85;4.45;;;;;;;22.49;57.86;99332.78;5200541;28;20051;-69
2022/08/02 06:36:51;;;;;;;5.65;4.13;;;;;;;22.07;58.36;99329.50;5192243;28;20053;-69
2022/08/02 06:39:47;;;;;;;4.68;4.00;;;;;;;22.30;57.93;99329.09;5182323;28;20052;-69
2022/08/02 06:43:09;;;;;;;7.28;4.88;;;;;;;22.58;57.52;99327.94;5181856;28;20049;-69
2022/08/02 06:46:00;;;;;;;6.95;4.60;;;;;;;22.58;57.99;99323.38;5191170;28;20112;-69
2022/08/02 06:49:11;;;;;;;6.13;3.83;;;;;;;22.70;57.87;99332.47;5191313;28;20045;-70
2022/08/02 06:52:02;;;;;;;5.10;3.90;;;;;;;22.98;56.73;99340.31;5189550;28;20626;-69
2022/08/02 06:54:54;;;;;;;8.75;4.35;;;;;;;23.06;56.17;99343.78;5189939;28;20046;-70
2022/08/02 06:57:44;;;;;;;9.63;3.70;;;;;;;22.94;56.21;99338.22;5190186;28;20057;-69
2022/08/02 07:00:35;;;;;;;6.40;4.15;;;;;;;23.10;56.07;99332.31;5196916;28;20041;-67
2022/08/02 07:03:26;;;;;;;7.18;4.57;;;;;;;23.31;55.58;99331.16;5205345;28;20144;-69
2022/08/02 07:06:16;;;;;;;6.47;4.53;;;;;;;23.31;55.04;99336.59;5192963;28;20685;-69
2022/08/02 07:09:06;;;;;;;6.25;4.90;;;;;;;23.34;55.73;99338.81;5201991;28;20100;-69
2022/08/02 07:12:12;;;;;;;6.78;4.47;;;;;;;23.46;55.57;99328.13;5192283;28;20049;-67
2022/08/02 07:15:05;;;;;;;7.45;4.72;;;;;;;22.97;56.20;99335.91;5191299;28;20195;-68
2022/08/02 07:17:55;;;;;;;8.98;4.85;;;;;;;23.80;54.67;99350.41;5196487;28;20610;-69
2022/08/02 07:20:46;;;;;;;7.50;4.32;;;;;;;24.01;53.39;99327.53;5188700;28;20502;-69
2022/08/02 07:23:36;;;;;;;6.63;4.22;;;;;;;24.08;53.78;99336.41;5191632;28;20179;-69
2022/08/02 07:26:26;;;;;;;7.32;4.70;;;;;;;24.29;53.28;99337.84;5197867;28;20100;-69
2022/08/02 07:29:16;;;;;;;7.07;4.57;;;;;;;25.81;49.03;99335.03;5199142;28;20103;-69
2022/08/02 07:32:07;;;;;;;6.10;4.30;;;;;;;26.31;46.93;99342.72;5197194;28;20072;-69
2022/08/02 07:34:59;;;;;;;6.20;4.00;;;;;;;25.02;50.39;99343.25;5196389;28;20128;-69
2022/08/02 07:37:53;;;;;;;5.18;3.83;;;;;;;25.82;49.18;99346.72;5200711;28;20064;-69
2022/08/02 07:40:51;;;;;;;6.25;3.95;;;;;;;26.70;47.07;99351.19;5186511;28;20056;-69
2022/08/02 07:43:41;;;;;;;4.80;3.70;;;;;;;27.16;46.03;99346.69;5194891;28;20115;-69
2022/08/02 07:46:32;;;;;;;5.30;3.50;;;;;;;28.02;44.08;99338.38;5202755;28;20065;-69
2022/08/02 07:49:25;;;;;;;8.02;3.97;;;;;;;28.74;44.08;99351.09;5190763;28;20045;-69
2022/08/02 07:52:15;;;;;;;4.70;4.10;;;;;;;28.64;42.03;99350.97;5197883;28;20192;-70
2022/08/02 07:55:07;;;;;;;5.28;3.35;;;;;;;28.47;42.64;99354.59;5185138;28;20052;-69
2022/08/02 07:57:57;;;;;;;4.25;3.33;;;;;;;28.59;42.38;99348.22;5184866;28;20127;-69
2022/08/02 08:00:48;;;;;;;3.88;3.42;;;;;;;30.22;39.45;99352.59;5186561;28;20147;-69
2022/08/02 08:03:38;;;;;;;5.65;3.75;;;;;;;28.54;42.36;99351.66;5194927;28;20049;-69
2022/08/02 08:06:30;;;;;;;5.72;3.78;;;;;;;28.48;41.97;99341.78;5184350;28;20063;-69
2022/08/02 08:09:20;;;;;;;6.80;4.25;;;;;;;29.66;40.36;99346.69;5191895;28;20057;-69
2022/08/02 08:12:11;;;;;;;5.43;3.63;;;;;;;30.68;38.21;99339.16;5191182;28;20757;-68
2022/08/02 08:15:02;;;;;;;4.50;3.47;;;;;;;31.57;38.05;99342.72;5192460;28;20092;-68
2022/08/02 08:17:53;;;;;;;3.92;2.90;;;;;;;31.85;36.85;99335.03;5191882;28;20510;-68
2022/08/02 08:20:43;;;;;;;4.75;3.40;;;;;;;31.66;37.26;99335.59;5188421;28;20179;-68
2022/08/02 08:23:34;;;;;;;6.60;3.55;;;;;;;30.20;39.02;99346.56;5191113;28;20557;-67
2022/08/02 08:26:25;;;;;;;5.43;3.20;;;;;;;29.92;39.35;99350.44;5196052;28;20053;-67
2022/08/02 08:29:15;;;;;;;6.70;3.00;;;;;;;31.08;38.39;99338.50;5194964;28;20053;-67
2022/08/02 08:32:07;;;;;;;5.15;3.20;;;;;;;32.11;36.79;99342.16;5193396;28;20053;-67
2022/08/02 08:35:05;;;;;;;4.97;2.95;;;;;;;31.70;35.91;99330.38;5196622;28;20048;-68
2022/08/02 08:37:55;;;;;;;2.75;2.55;;;;;;;31.73;37.50;99335.31;5194952;28;20129;-68
2022/08/02 08:40:48;;;;;;;3.38;3.08;;;;;;;31.86;36.36;99337.50;5199288;28;20160;-68
2022/08/02 08:43:39;;;;;;;5.90;2.80;;;;;;;32.63;34.64;99335.47;5189449;28;20056;-68
2022/08/02 08:46:33;;;;;;;6.95;3.20;;;;;;;32.10;35.30;99332.28;5195307;28;20138;-68
2022/08/02 08:49:50;;;;;;;7.13;3.00;;;;;;;32.85;33.50;99317.78;5198839;28;20155;-68
2022/08/02 08:52:47;;;;;;;4.00;2.70;;;;;;;32.97;33.65;99324.59;5182995;28;20187;-68
2022/08/02 08:55:37;;;;;;;5.68;3.08;;;;;;;33.56;32.48;99331.13;5192219;28;20526;-68
2022/08/02 08:58:28;;;;;;;5.00;2.80;;;;;;;31.37;35.32;99327.06;5188863;28;20071;-68
2022/08/02 09:01:18;;;;;;;5.70;2.85;;;;;;;32.71;34.42;99315.63;5190817;28;20500;-68
2022/08/02 09:04:08;;;;;;;4.82;3.40;;;;;;;31.77;35.18;99293.38;5188262;28;20052;-68
2022/08/02 09:06:58;;;;;;;5.35;3.05;;;;;;;31.26;36.31;99320.75;5203220;28;20076;-68
2022/08/02 09:09:49;;;;;;;5.00;3.40;;;;;;;32.06;35.52;99322.97;5173906;28;20103;-68
2022/08/02 09:12:39;;;;;;;2.70;2.40;;;;;;;33.14;34.00;99328.91;5171823;28;20183;-67
2022/08/02 09:15:29;;;;;;;3.67;2.85;;;;;;;33.48;32.73;99314.38;5171571;28;20061;-68
2022/08/02 09:18:19;;;;;;;3.92;2.80;;;;;;;34.18;31.94;99322.34;5172640;28;20058;-69
2022/08/02 09:21:09;;;;;;;4.32;2.80;;;;;;;34.65;32.01;99301.44;5174713;28;20064;-69
2022/08/02 09:24:00;;;;;;;3.55;3.08;;;;;;;34.06;31.07;99309.78;5176017;28;20208;-68
2022/08/02 09:26:51;;;;;;;5.78;3.13;;;;;;;34.80;30.08;99318.59;5176500;28;20155;-68
2022/08/02 09:29:46;;;;;;;4.32;3.30;;;;;;;34.41;31.67;99310.50;5179407;28;20176;-67
2022/08/02 09:32:57;;;;;;;5.07;3.20;;;;;;;35.05;30.07;99309.16;5178177;28;20080;-69
2022/08/02 09:36:03;;;;;;;3.75;2.78;;;;;;;34.48;31.39;99310.97;5179951;28;20049;-68
2022/08/02 09:39:02;;;;;;;6.00;3.45;;;;;;;34.74;30.64;99303.25;5191412;28;20518;-69
2022/08/02 09:42:07;;;;;;;4.75;2.72;;;;;;;34.86;31.93;99300.03;5167442;28;20115;-68
2022/08/02 09:44:59;;;;;;;8.48;2.95;;;;;;;34.70;31.34;99287.59;5170948;28;20050;-69
2022/08/02 09:47:50;;;;;;;7.38;3.30;;;;;;;35.11;30.63;99296.13;5180933;28;20072;-69
2022/08/02 09:50:41;;;;;;;4.93;3.10;;;;;;;34.79;30.62;99305.91;5169624;28;20053;-69
2022/08/02 09:53:32;;;;;;;4.10;3.00;;;;;;;33.78;31.80;99300.41;5166916;28;20058;-68
2022/08/02 09:56:48;;;;;;;5.95;3.53;;;;;;;33.59;32.01;99308.56;5170354;28;20065;-69
2022/08/02 10:03:08;;;;;;;5.03;3.10;;;;;;;34.41;31.08;99299.50;5089022;29;20043;-72
2022/08/02 10:06:11;;;;;;;4.97;2.92;;;;;;;33.80;32.65;99297.38;5090234;29;20058;-72
2022/08/02 10:09:01;;;;;;;5.78;3.60;;;;;;;34.02;31.47;99297.72;5105936;28;20131;-71
2022/08/02 10:11:52;;;;;;;6.38;3.55;;;;;;;34.42;30.77;99292.88;5094997;29;20113;-72
2022/08/02 10:14:42;;;;;;;6.50;3.25;;;;;;;33.51;33.12;99287.19;5099088;29;20062;-72
2022/08/02 10:17:34;;;;;;;5.90;3.10;;;;;;;34.36;32.89;99280.28;5102918;29;20580;-71
2022/08/02 10:20:25;;;;;;;3.15;2.78;;;;;;;34.28;32.28;99276.25;5104770;29;20118;-72
2022/08/02 10:23:18;;;;;;;3.05;2.65;;;;;;;35.27;31.78;99274.69;5107604;29;20078;-71
2022/08/02 10:26:13;;;;;;;4.43;3.10;;;;;;;35.17;30.14;99274.84;5104940;28;20075;-72
2022/08/02 10:29:04;;;;;;;4.03;3.00;;;;;;;35.29;29.93;99275.19;5105849;28;20046;-71
2022/08/02 10:31:57;;;;;;;3.35;2.80;;;;;;;35.18;29.30;99274.53;5099796;28;20135;-70
2022/08/02 10:34:57;;;;;;;2.92;2.45;;;;;;;35.00;29.88;99267.88;5096091;28;20074;-71
2022/08/02 10:38:10;;;;;;;3.55;2.80;;;;;;;35.32;30.18;99260.78;5095223;29;20087;-70
2022/08/02 10:41:01;;;;;;;5.72;2.60;;;;;;;35.17;29.20;99258.31;5095237;29;20058;-72
2022/08/02 10:43:51;;;;;;;5.30;3.30;;;;;;;34.19;30.00;99261.50;5096522;29;20059;-69
2022/08/02 10:46:42;;;;;;;4.93;2.90;;;;;;;34.95;29.40;99259.69;5095947;29;20062;-69
2022/08/02 10:49:50;;;;;;;2.92;2.45;;;;;;;35.18;29.83;99252.47;5102333;29;20492;-71
2022/08/02 10:52:40;;;;;;;3.47;2.50;;;;;;;34.79;29.68;99255.53;5102527;29;20056;-70
2022/08/02 10:55:44;;;;;;;2.70;2.42;;;;;;;34.89;28.88;99247.09;5103972;29;20061;-69
2022/08/02 10:58:34;;;;;;;4.25;2.33;;;;;;;34.79;29.97;99239.00;5119581;29;20059;-68
2022/08/02 11:01:31;;;;;;;4.20;2.40;;;;;;;34.87;29.77;99241.09;5118974;29;20593;-71
2022/08/02 11:04:35;;;;;;;4.28;2.38;;;;;;;35.14;29.25;99242.38;5131576;28;20078;-73
2022/08/02 11:07:32;;;;;;;3.30;2.50;;;;;;;33.87;29.63;99242.81;5127144;28;20056;-73
2022/08/02 11:10:23;;;;;;;2.67;2.47;;;;;;;33.94;30.13;99248.78;5106825;29;20055;-73
2022/08/02 11:13:15;;;;;;;3.08;2.78;;;;;;;34.31;31.47;99237.13;5118309;29;20524;-74
2022/08/02 11:16:06;;;;;;;5.93;2.35;;;;;;;34.79;29.37;99237.06;5117683;29;20051;-72
2022/08/02 11:19:03;;;;;;;3.70;2.53;;;;;;;34.32;29.72;99237.94;5132344;28;20421;-71
2022/08/02 11:22:05;;;;;;;5.53;2.28;;;;;;;33.76;32.14;99217.38;5117628;29;20789;-72
2022/08/02 11:24:56;;;;;;;6.05;2.58;;;;;;;33.65;32.64;99232.34;5118912;29;20269;-73
2022/08/02 11:27:49;;;;;;;3.42;2.60;;;;;;;33.75;32.19;99235.00;5114883;29;20051;-71
2022/08/02 11:30:39;;;;;;;4.47;2.70;;;;;;;34.25;31.82;99220.97;5118933;29;20125;-75
2022/08/02 11:33:31;;;;;;;2.30;2.10;;;;;;;34.21;32.20;99217.19;5133584;28;20047;-72
2022/08/02 11:36:21;;;;;;;4.03;2.30;;;;;;;33.41;32.20;99182.75;5121191;29;20062;-72
2022/08/02 11:39:15;;;;;;;9.30;3.00;;;;;;;33.55;31.09;99222.25;5119209;29;20052;-70
2022/08/02 11:42:06;;;;;;;3.45;2.55;;;;;;;32.62;31.62;99193.81;5119982;28;20493;-71
2022/08/02 11:44:57;;;;;;;5.18;2.60;;;;;;;32.44;31.94;99209.00;5123240;29;20055;-71
2022/08/02 11:47:49;;;;;;;3.42;2.72;;;;;;;32.44;31.17;99209.00;5124310;29;20051;-70
2022/08/02 11:50:39;;;;;;;4.70;2.70;;;;;;;32.87;31.10;99194.75;5123764;29;20055;-72
2022/08/02 11:53:39;;;;;;;4.72;2.70;;;;;;;32.15;31.75;99199.78;5111617;29;20632;-72
2022/08/02 11:56:33;;;;;;;3.78;2.25;;;;;;;32.20;32.30;99210.75;5124395;29;20514;-70
2022/08/02 11:59:24;;;;;;;4.07;2.30;;;;;;;32.24;32.42;99215.38;5122887;29;20731;-71
2022/08/02 12:02:16;;;;;;;3.67;2.45;;;;;;;32.21;32.69;99206.88;5122331;28;20058;-71
2022/08/02 12:05:08;;;;;;;3.45;2.50;;;;;;;32.68;32.45;99208.31;5125529;28;20044;-72
2022/08/02 12:07:59;;;;;;;2.40;2.20;;;;;;;32.73;31.09;99178.09;5130282;28;20047;-73
2022/08/02 12:10:51;;;;;;;2.55;2.35;;;;;;;32.19;32.43;99209.09;5123910;29;20058;-73
2022/08/02 12:13:43;;;;;;;2.38;2.17;;;;;;;32.72;31.07;99193.75;5123271;29;20057;-71
2022/08/02 12:19:56;;;;;;;2.53;2.33;;;;;;;31.98;32.78;99206.41;5124191;29;19930;-70
2022/08/02 12:22:46;;;;;;;3.88;2.30;;;;;;;32.39;32.83;99203.53;5122773;29;20059;-71
2022/08/02 12:25:37;;;;;;;3.63;2.38;;;;;;;32.34;32.43;99199.97;5122703;29;20106;-70
2022/08/02 12:28:27;;;;;;;4.13;2.22;;;;;;;32.56;31.71;99194.94;5135150;28;20429;-70
2022/08/02 12:31:18;;;;;;;3.22;2.40;;;;;;;32.19;32.47;99201.69;5111444;28;20146;-74
2022/08/02 12:34:16;;;;;;;4.35;2.30;;;;;;;32.46;31.83;99195.81;5106277;28;20047;-69
2022/08/02 12:37:09;;;;;;;4.78;2.50;;;;;;;32.73;30.01;99197.31;5110216;28;20484;-71
2022/08/02 12:40:28;;;;;;;6.45;2.38;;;;;;;32.41;31.65;99186.75;5102593;29;20055;-69
2022/08/02 12:43:22;;;;;;;2.40;2.20;;;;;;;32.40;32.47;99183.19;5115926;28;20544;-70
2022/08/02 12:46:17;;;;;;;3.13;1.90;;;;;;;32.63;30.22;99183.66;5102047;28;20051;-71
2022/08/02 12:49:15;;;;;;;2.15;1.95;;;;;;;31.95;30.81;99167.75;5100566;28;20632;-72
2022/08/02 12:52:19;;;;;;;2.20;1.98;;;;;;;32.31;31.06;99175.84;5098753;28;20055;-70
2022/08/02 12:55:21;;;;;;;2.72;2.03;;;;;;;31.83;31.91;99176.28;5105033;28;20062;-70
2022/08/02 12:58:11;;;;;;;3.05;1.83;;;;;;;31.51;32.22;99173.88;5099126;28;20471;-71
2022/08/02 13:01:01;;;;;;;3.42;2.00;;;;;;;31.52;32.04;99157.19;5097714;28;20133;-71
2022/08/02 13:03:53;;;;;;;2.10;2.00;;;;;;;31.85;31.36;99163.09;5095306;28;20058;-71
2022/08/02 13:07:03;;;;;;;3.63;2.28;;;;;;;31.49;31.22;99163.22;5098662;29;20066;-70
2022/08/02 13:09:53;;;;;;;7.93;2.08;;;;;;;30.93;32.72;99144.06;5097645;28;20060;-71
2022/08/02 13:12:53;;;;;;;2.22;2.00;;;;;;;31.72;31.67;99167.28;5102671;28;20135;-72
2022/08/02 13:15:43;;;;;;;2.78;1.90;;;;;;;31.22;31.81;99165.41;5103056;29;20578;-70
2022/08/02 13:18:40;;;;;;;2.55;2.00;;;;;;;31.16;32.08;99169.22;5107182;29;20090;-71
2022/08/02 13:21:31;;;;;;;2.78;1.98;;;;;;;31.33;31.50;99165.16;5105283;29;20113;-71
2022/08/02 13:24:41;;;;;;;4.95;1.80;;;;;;;31.72;31.65;99159.06;5118452;28;20059;-74
2022/08/02 13:27:46;;;;;;;2.35;2.15;;;;;;;31.68;31.58;99157.94;5105412;29;20066;-73
2022/08/02 13:30:37;;;;;;;6.50;2.17;;;;;;;31.01;30.91;99148.97;5104906;28;20043;-74
2022/08/02 13:33:27;;;;;;;1.98;1.73;;;;;;;31.33;31.76;99148.72;5108163;29;20158;-74
2022/08/02 13:36:18;;;;;;;1.80;1.70;;;;;;;31.64;30.97;99150.56;5116758;28;20066;-69
2022/08/02 13:39:09;;;;;;;2.00;1.65;;;;;;;31.31;30.54;99148.13;5101959;29;20065;-71
2022/08/02 13:41:59;;;;;;;3.38;2.00;;;;;;;31.01;30.51;99148.16;5101665;29;20058;-70
2022/08/02 13:44:49;;;;;;;3.85;1.92;;;;;;;31.34;30.21;99144.06;5096363;28;20107;-70
2022/08/02 13:47:43;;;;;;;2.33;1.90;;;;;;;31.67;29.91;99134.38;5109564;28;20062;-70
2022/08/02 13:50:53;;;;;;;4.22;2.08;;;;;;;31.72;30.82;99134.38;5095280;29;20073;-70